Hauptseite
METAR-TAF:

METAR-TAF

Flughäfen :

Koror, Babelthuap Island, Palau

Flughafen Koror

Breite: 07-22N, Länge: 134-32E, Höhe: 54 m

Beobachtung

Neuester Wetterbericht von vor 1 Stunde und 14 Minuten, um 10:50 UTC
Windstille
Temperatur 27°C
Luftfeuchtigkeit 84%
Luftdruck 1011 hPa
Sichtweite: 24.1 km
Leicht bewölkt in der Höhe von 1600 ft
Aufgelockert bewölkt in der Höhe von 12000 ft
Durchbrochene Bewölkung in der Höhe von 30000 ft

METAR: PTRO 221050Z 00000KT 15SM FEW016 SCT120 BKN300 27/24 A2985

Zeit: 21:04 (12:04 UTC)

Prognose

Neuester Wetterbericht von vor 44 Minuten, um 11:20 UTC
Gültige Prognose vom 22 um 12 UTC bis 23 um 12 UTC
Wind 5 kt aus unterschiedlichen Richtungen
Sichtweite: 10 km
Leicht bewölkt in der Höhe von 1600 ft
Aufgelockert bewölkt in der Höhe von 12000 ft
Schauer in der Nähe

TAF: PTRO 221120Z 2212/2312 VRB05KT P6SM VCSH FEW016 SCT120

Wetterbeobachtungen und Prognosen von mehr als 4000 Flughäfen (METAR und TAF Bericht).

Die verfügbaren Stationen werden durch gelbe und rote Markierungen auf der Karte dargestellt.

Führen Sie die Maus auf sie, um den Namen der Station zu sehen.

Darauf klicken, um die Beobachtung von Wetterbeobachtungen und Prognosen zu sehen.

Um die Karte zu ändern : klicken Sie auf den grünen Tasten mit einem schwarzen Kreuz Zum Vergrößern, auf den grünen Button mit einem Gedankenstrich zu verkleinern, oder auf die grünen Pfeile für benachbarte Karten.


METAR-TAF: